createdAt,value
2022-09-06T00:00:18.007Z,18.60
2022-09-06T00:02:45.920Z,18.70
2022-09-06T00:05:13.353Z,18.70
2022-09-06T00:07:40.786Z,18.70
2022-09-06T00:10:08.910Z,18.70
2022-09-06T00:12:36.952Z,18.70
2022-09-06T00:15:05.221Z,18.70
2022-09-06T00:17:33.290Z,18.80
2022-09-06T00:20:00.367Z,18.70
2022-09-06T00:22:27.262Z,18.70
2022-09-06T00:24:54.111Z,18.70
2022-09-06T00:27:20.952Z,18.70
2022-09-06T00:29:47.740Z,18.70
2022-09-06T00:32:14.621Z,18.70
2022-09-06T00:34:42.201Z,18.60
2022-09-06T00:37:08.992Z,18.60
2022-09-06T00:39:35.992Z,18.60
2022-09-06T00:42:03.096Z,18.70
2022-09-06T00:44:29.992Z,18.70
2022-09-06T00:46:56.893Z,18.70
2022-09-06T00:49:31.778Z,18.70
2022-09-06T00:52:03.678Z,18.80
2022-09-06T00:54:30.977Z,18.70
2022-09-06T00:56:58.884Z,18.70
2022-09-06T00:59:29.003Z,18.60
2022-09-06T01:01:56.041Z,18.50
2022-09-06T01:04:24.472Z,18.40
2022-09-06T01:07:00.436Z,18.50
2022-09-06T01:09:34.192Z,18.60
2022-09-06T01:12:13.182Z,18.70
2022-09-06T01:14:52.182Z,18.60
2022-09-06T01:17:59.116Z,18.60
2022-09-06T01:21:01.484Z,18.80
2022-09-06T01:23:54.936Z,18.80
2022-09-06T01:26:40.466Z,18.60
2022-09-06T01:29:23.336Z,18.60
2022-09-06T01:32:00.972Z,18.60
2022-09-06T01:34:58.763Z,18.60
2022-09-06T01:37:25.717Z,18.40
2022-09-06T01:39:52.620Z,18.30
2022-09-06T01:42:30.960Z,18.30
2022-09-06T01:45:05.865Z,18.30
2022-09-06T01:48:03.011Z,18.30
2022-09-06T01:51:04.740Z,18.30
2022-09-06T01:53:50.829Z,18.30
2022-09-06T01:56:31.738Z,18.20
2022-09-06T01:59:07.777Z,18.20
2022-09-06T02:01:43.967Z,18.20
2022-09-06T02:04:25.452Z,18.20
2022-09-06T02:07:02.113Z,18.20
2022-09-06T02:09:35.701Z,18.20
2022-09-06T02:12:04.322Z,18.10
2022-09-06T02:14:40.821Z,18.20
2022-09-06T02:17:12.512Z,18.20
2022-09-06T02:19:52.352Z,18.20
2022-09-06T02:22:23.312Z,18.30
2022-09-06T02:24:52.775Z,18.20
2022-09-06T02:27:19.975Z,18.20
2022-09-06T02:29:46.976Z,18.20
2022-09-06T02:32:17.184Z,18.20
2022-09-06T02:34:46.187Z,18.10
2022-09-06T02:37:17.137Z,18.20
2022-09-06T02:39:44.280Z,18.20
2022-09-06T02:42:14.349Z,18.20
2022-09-06T02:44:41.196Z,18.20
2022-09-06T02:47:08.126Z,18.20
2022-09-06T02:49:34.957Z,18.20
2022-09-06T02:52:01.867Z,18.20
2022-09-06T02:54:28.747Z,18.20
2022-09-06T02:56:55.615Z,18.20
2022-09-06T02:59:22.440Z,18.10
2022-09-06T03:01:49.452Z,18.00
2022-09-06T03:04:16.589Z,18.00
2022-09-06T03:06:43.440Z,18.10
2022-09-06T03:09:10.572Z,18.10
2022-09-06T03:11:38.152Z,18.10
2022-09-06T03:14:05.054Z,18.10
2022-09-06T03:16:32.285Z,18.20
2022-09-06T03:18:59.130Z,18.20
2022-09-06T03:21:26.186Z,18.20
2022-09-06T03:23:53.142Z,18.20
2022-09-06T03:26:19.953Z,18.10
2022-09-06T03:28:46.836Z,18.20
2022-09-06T03:31:13.755Z,18.20
2022-09-06T03:33:40.947Z,18.10
2022-09-06T03:36:07.845Z,18.10
2022-09-06T03:38:34.653Z,18.10
2022-09-06T03:41:01.533Z,18.10
2022-09-06T03:43:28.571Z,18.20
2022-09-06T03:45:59.528Z,18.30
2022-09-06T03:48:29.304Z,18.30
2022-09-06T03:50:57.911Z,18.30
2022-09-06T03:53:26.537Z,18.30
2022-09-06T03:55:54.847Z,18.50
2022-09-06T03:58:23.587Z,18.60
2022-09-06T04:00:59.548Z,18.60
2022-09-06T04:03:26.463Z,18.60
2022-09-06T04:05:53.291Z,18.70
2022-09-06T04:08:20.357Z,18.80
2022-09-06T04:10:51.138Z,18.90
2022-09-06T04:13:18.245Z,18.80
2022-09-06T04:15:48.974Z,18.80
2022-09-06T04:18:16.642Z,18.70
2022-09-06T04:20:45.270Z,18.70
2022-09-06T04:23:12.154Z,18.60
2022-09-06T04:25:39.057Z,18.50
2022-09-06T04:28:05.856Z,18.60
2022-09-06T04:30:32.962Z,18.60
2022-09-06T04:32:59.874Z,18.70
2022-09-06T04:35:26.732Z,18.80
2022-09-06T04:37:53.527Z,19.00
2022-09-06T04:40:20.426Z,19.00
2022-09-06T04:42:47.286Z,18.90
2022-09-06T04:45:14.192Z,19.00
2022-09-06T04:47:41.108Z,19.00
2022-09-06T04:50:08.423Z,19.00
2022-09-06T04:52:35.369Z,18.90
2022-09-06T04:55:02.304Z,18.90
2022-09-06T04:57:29.105Z,18.80
2022-09-06T04:59:55.916Z,18.70
2022-09-06T05:02:22.827Z,18.60
2022-09-06T05:04:49.704Z,18.50
2022-09-06T05:07:16.623Z,18.50
2022-09-06T05:09:43.676Z,18.60
2022-09-06T05:12:10.812Z,18.50
2022-09-06T05:14:37.658Z,18.60
2022-09-06T05:17:04.637Z,18.60
2022-09-06T05:19:31.480Z,18.60
2022-09-06T05:21:58.324Z,18.60
2022-09-06T05:24:25.276Z,18.70
2022-09-06T05:26:52.200Z,18.60
2022-09-06T05:29:19.064Z,18.60
2022-09-06T05:31:45.993Z,18.60
2022-09-06T05:34:15.010Z,18.60
2022-09-06T05:36:42.195Z,18.50
2022-09-06T05:39:09.243Z,18.50
2022-09-06T05:41:36.157Z,18.50
2022-09-06T05:44:03.824Z,18.50
2022-09-06T05:46:30.781Z,18.60
2022-09-06T05:49:07.757Z,18.60
2022-09-06T05:51:34.783Z,18.60
2022-09-06T05:54:01.673Z,18.70
2022-09-06T05:56:28.641Z,18.60
2022-09-06T05:58:55.698Z,18.60
2022-09-06T06:01:26.909Z,18.70
2022-09-06T06:04:05.365Z,18.70
2022-09-06T06:06:34.036Z,18.70
2022-09-06T06:09:01.386Z,18.70
2022-09-06T06:11:28.686Z,18.70
2022-09-06T06:13:55.611Z,18.70
2022-09-06T06:16:23.406Z,18.70
2022-09-06T06:18:52.580Z,18.70
2022-09-06T06:21:21.685Z,18.80
2022-09-06T06:23:54.001Z,18.80
2022-09-06T06:26:21.330Z,18.80
2022-09-06T06:28:49.051Z,18.80
2022-09-06T06:31:16.678Z,18.80
2022-09-06T06:33:44.444Z,18.80
2022-09-06T06:36:14.086Z,18.80
2022-09-06T06:38:43.052Z,18.90
2022-09-06T06:41:12.691Z,18.90
2022-09-06T06:43:39.920Z,19.00
2022-09-06T06:46:09.699Z,19.10
2022-09-06T06:48:39.736Z,19.10
2022-09-06T06:51:07.424Z,19.10
2022-09-06T06:53:35.387Z,19.30
2022-09-06T06:56:13.048Z,19.40
2022-09-06T06:58:40.078Z,19.50
2022-09-06T07:01:09.913Z,19.50
2022-09-06T07:03:36.846Z,19.60
2022-09-06T07:08:36.645Z,19.80
2022-09-06T07:11:04.668Z,19.80
2022-09-06T07:13:33.953Z,20.00
2022-09-06T07:16:16.610Z,20.00
2022-09-06T07:18:45.800Z,20.00
2022-09-06T07:24:08.755Z,20.00
2022-09-06T07:26:39.690Z,20.00
2022-09-06T07:29:08.083Z,20.10
2022-09-06T07:34:25.198Z,20.30
2022-09-06T07:36:56.147Z,20.40
2022-09-06T07:39:23.649Z,20.40
2022-09-06T07:41:50.733Z,20.50
2022-09-06T07:44:17.760Z,20.50
2022-09-06T07:46:44.790Z,20.50
2022-09-06T07:49:12.120Z,20.50
2022-09-06T07:51:39.092Z,20.50
2022-09-06T07:54:28.853Z,20.60
2022-09-06T07:56:54.089Z,20.60
2022-09-06T07:59:20.997Z,20.70
2022-09-06T08:01:48.363Z,20.80
2022-09-06T08:04:15.468Z,21.00
2022-09-06T08:09:35.149Z,21.10
2022-09-06T08:12:06.899Z,21.10
2022-09-06T08:14:34.748Z,21.10
2022-09-06T08:17:02.404Z,21.10
2022-09-06T08:19:29.297Z,21.10
2022-09-06T08:21:56.448Z,21.20
2022-09-06T08:24:23.434Z,21.30
2022-09-06T08:26:50.434Z,21.50
2022-09-06T08:29:17.597Z,21.50
2022-09-06T08:31:45.198Z,21.50
2022-09-06T08:34:15.365Z,21.50
2022-09-06T08:36:43.031Z,21.60
2022-09-06T08:39:11.021Z,21.70
2022-09-06T08:41:49.996Z,21.80
2022-09-06T08:47:21.825Z,22.00
2022-09-06T08:49:55.409Z,22.20
2022-09-06T08:52:41.760Z,22.20
2022-09-06T08:55:30.326Z,22.20
2022-09-06T08:58:29.255Z,22.20
2022-09-06T09:01:07.250Z,22.40
2022-09-06T09:03:36.845Z,22.60
2022-09-06T09:06:06.831Z,22.70
2022-09-06T09:08:43.043Z,22.90
2022-09-06T09:11:20.067Z,23.00
2022-09-06T09:13:59.248Z,23.10
2022-09-06T09:16:26.332Z,23.10
2022-09-06T09:18:57.168Z,23.10
2022-09-06T09:21:30.469Z,23.10
2022-09-06T09:24:02.044Z,23.20
2022-09-06T09:26:43.952Z,23.30
2022-09-06T09:29:14.041Z,23.20
2022-09-06T09:31:53.407Z,23.30
2022-09-06T09:34:39.776Z,23.40
2022-09-06T09:40:30.837Z,23.60
2022-09-06T09:43:19.426Z,23.80
2022-09-06T09:45:57.259Z,24.10
2022-09-06T09:48:27.448Z,24.10
2022-09-06T09:50:56.141Z,24.10
2022-09-06T09:53:24.170Z,24.30
2022-09-06T09:56:00.004Z,24.50
2022-09-06T09:58:36.349Z,24.40
2022-09-06T10:01:22.739Z,24.50
2022-09-06T10:09:36.680Z,24.70
2022-09-06T10:12:03.861Z,24.80
2022-09-06T10:14:33.845Z,24.90
2022-09-06T10:17:01.151Z,25.00
2022-09-06T10:19:38.987Z,25.20
2022-09-06T10:22:31.217Z,25.20
2022-09-06T10:25:22.060Z,25.10
2022-09-06T10:28:12.037Z,25.10
2022-09-06T10:30:55.922Z,25.20
2022-09-06T10:33:22.788Z,25.40
2022-09-06T10:35:49.613Z,25.50
2022-09-06T10:38:42.717Z,25.70
2022-09-06T10:41:25.731Z,26.10
2022-09-06T10:44:34.872Z,26.50
2022-09-06T10:47:12.003Z,26.60
2022-09-06T10:49:44.001Z,26.80
2022-09-06T10:52:16.300Z,26.90
2022-09-06T10:54:46.962Z,27.20
2022-09-06T11:00:14.659Z,27.10
2022-09-06T11:02:47.470Z,27.10
2022-09-06T11:05:38.847Z,27.20
2022-09-06T11:11:08.167Z,27.60
2022-09-06T11:13:35.169Z,27.40
2022-09-06T11:16:02.186Z,27.50
2022-09-06T11:18:41.771Z,27.70
2022-09-06T11:21:27.171Z,27.80
2022-09-06T11:24:11.199Z,27.90
2022-09-06T11:27:00.872Z,28.10
2022-09-06T11:29:30.000Z,28.20
2022-09-06T11:34:58.007Z,27.90
2022-09-06T11:37:44.782Z,28.10
2022-09-06T11:42:51.914Z,28.30
2022-09-06T11:45:21.991Z,28.40
2022-09-06T11:47:50.898Z,28.60
2022-09-06T11:50:20.807Z,28.90
2022-09-06T11:52:59.806Z,29.10
2022-09-06T11:55:38.257Z,29.40
2022-09-06T11:58:19.188Z,29.70
2022-09-06T12:01:06.900Z,29.60
2022-09-06T12:04:05.931Z,29.30
2022-09-06T12:06:43.839Z,29.20
2022-09-06T12:09:42.653Z,29.30
2022-09-06T12:12:14.875Z,29.70
2022-09-06T12:14:46.925Z,30.50
2022-09-06T12:17:14.020Z,30.70
2022-09-06T12:19:48.216Z,31.10
2022-09-06T12:22:30.117Z,31.00
2022-09-06T12:24:59.894Z,31.10
2022-09-06T12:27:28.415Z,31.30
2022-09-06T12:30:13.232Z,31.30
2022-09-06T12:32:51.972Z,31.20
2022-09-06T12:38:17.244Z,30.90
2022-09-06T12:40:51.932Z,31.60
2022-09-06T12:43:19.822Z,31.90
2022-09-06T12:45:51.526Z,32.20
2022-09-06T12:48:31.694Z,32.10
2022-09-06T12:51:02.660Z,32.40
2022-09-06T12:53:31.679Z,33.30
2022-09-06T12:56:12.630Z,34.00
2022-09-06T12:58:39.762Z,34.30
2022-09-06T13:01:27.328Z,34.70
2022-09-06T13:04:12.040Z,35.50
2022-09-06T13:06:45.276Z,36.70
2022-09-06T13:09:16.940Z,36.70
2022-09-06T13:11:47.499Z,37.00
2022-09-06T13:14:19.634Z,38.10
2022-09-06T13:16:49.507Z,38.80
2022-09-06T13:19:31.891Z,39.10
2022-09-06T13:21:59.535Z,38.80
2022-09-06T13:24:47.067Z,39.40
2022-09-06T13:27:25.558Z,40.00
2022-09-06T13:30:07.477Z,40.30
2022-09-06T13:32:35.725Z,40.50
2022-09-06T13:35:04.363Z,41.80
2022-09-06T13:37:34.064Z,42.80
2022-09-06T13:40:05.041Z,43.50
2022-09-06T13:42:39.467Z,43.30
2022-09-06T13:45:28.758Z,42.30
2022-09-06T13:48:07.834Z,41.00
2022-09-06T13:50:43.374Z,40.00
2022-09-06T13:53:10.581Z,39.00
2022-09-06T13:55:37.700Z,39.00
2022-09-06T13:58:04.766Z,39.50
2022-09-06T14:00:31.837Z,39.60
2022-09-06T14:02:59.043Z,39.10
2022-09-06T14:05:26.193Z,38.30
2022-09-06T14:07:53.773Z,37.30
2022-09-06T14:10:23.869Z,38.10
2022-09-06T14:12:53.152Z,38.70
2022-09-06T14:15:20.223Z,39.00
2022-09-06T14:17:47.271Z,38.50
2022-09-06T14:20:14.272Z,37.20
2022-09-06T14:22:41.167Z,36.10
2022-09-06T14:25:09.533Z,35.00
2022-09-06T14:27:36.660Z,34.00
2022-09-06T14:30:04.870Z,33.10
2022-09-06T14:32:31.851Z,32.50
2022-09-06T14:34:58.775Z,31.90
2022-09-06T14:37:25.728Z,31.60
2022-09-06T14:39:52.753Z,31.20
2022-09-06T14:42:19.789Z,30.90
2022-09-06T14:44:46.866Z,30.50
2022-09-06T14:47:13.966Z,30.20
2022-09-06T14:49:40.872Z,29.90
2022-09-06T14:52:07.779Z,29.60
2022-09-06T14:54:35.085Z,29.30
2022-09-06T14:57:02.055Z,28.90
2022-09-06T14:59:29.042Z,28.60
2022-09-06T15:01:56.138Z,28.60
2022-09-06T15:04:23.101Z,28.30
2022-09-06T15:06:50.079Z,28.10
2022-09-06T15:09:17.961Z,27.90
2022-09-06T15:11:48.538Z,27.80
2022-09-06T15:14:16.901Z,27.70
2022-09-06T15:16:45.064Z,27.80
2022-09-06T15:19:12.160Z,27.70
2022-09-06T15:21:39.226Z,27.80
2022-09-06T15:24:11.522Z,27.90
2022-09-06T15:26:39.147Z,28.00
2022-09-06T15:29:06.003Z,27.80
2022-09-06T15:31:36.191Z,27.60
2022-09-06T15:34:03.213Z,27.40
2022-09-06T15:36:30.389Z,27.40
2022-09-06T15:39:01.882Z,27.20
2022-09-06T15:41:32.534Z,27.00
2022-09-06T15:44:07.518Z,26.90
2022-09-06T15:46:48.565Z,26.90
2022-09-06T15:49:19.339Z,27.20
2022-09-06T15:51:46.704Z,27.50
2022-09-06T15:54:16.453Z,27.80
2022-09-06T15:56:44.349Z,28.20
2022-09-06T15:59:12.167Z,28.50
2022-09-06T16:01:41.183Z,28.90
2022-09-06T16:04:08.310Z,29.20
2022-09-06T16:06:39.661Z,29.30
2022-09-06T16:09:10.279Z,29.40
2022-09-06T16:11:37.967Z,29.50
2022-09-06T16:14:07.175Z,29.50
2022-09-06T16:16:35.246Z,29.50
2022-09-06T16:19:02.993Z,29.60
2022-09-06T16:21:32.407Z,29.50
2022-09-06T16:24:04.588Z,29.50
2022-09-06T16:26:35.219Z,29.60
2022-09-06T16:29:03.635Z,29.60
2022-09-06T16:31:30.619Z,29.70
2022-09-06T16:33:58.187Z,29.70
2022-09-06T16:36:26.560Z,29.70
2022-09-06T16:38:54.866Z,29.80
2022-09-06T16:41:23.932Z,29.80
2022-09-06T16:43:54.775Z,29.80
2022-09-06T16:46:24.425Z,29.80
2022-09-06T16:48:54.210Z,29.90
2022-09-06T16:51:23.043Z,29.90
2022-09-06T16:53:50.862Z,30.00
2022-09-06T16:56:22.901Z,30.00
2022-09-06T16:58:55.041Z,29.80
2022-09-06T17:01:22.209Z,29.50
2022-09-06T17:03:49.397Z,29.20
2022-09-06T17:06:17.062Z,29.00
2022-09-06T17:08:44.526Z,28.80
2022-09-06T17:11:15.199Z,28.70
2022-09-06T17:13:43.412Z,28.50
2022-09-06T17:16:29.083Z,28.40
2022-09-06T17:18:56.065Z,28.10
2022-09-06T17:21:24.409Z,27.90
2022-09-06T17:23:52.314Z,27.70
2022-09-06T17:26:21.253Z,27.60
2022-09-06T17:28:51.446Z,27.50
2022-09-06T17:31:25.051Z,27.50
2022-09-06T17:33:53.495Z,27.40
2022-09-06T17:36:23.847Z,27.40
2022-09-06T17:38:53.367Z,27.40
2022-09-06T17:41:27.448Z,27.40
2022-09-06T17:43:57.374Z,27.30
2022-09-06T17:46:28.718Z,27.00
2022-09-06T17:48:56.939Z,26.90
2022-09-06T17:51:28.908Z,26.90
2022-09-06T17:53:55.868Z,26.90
2022-09-06T17:56:23.213Z,26.90
2022-09-06T17:58:59.383Z,26.80
2022-09-06T18:01:32.258Z,26.80
2022-09-06T18:03:59.849Z,26.70
2022-09-06T18:06:28.934Z,26.70
2022-09-06T18:08:58.223Z,26.60
2022-09-06T18:11:28.736Z,26.60
2022-09-06T18:14:04.873Z,26.50
2022-09-06T18:16:33.873Z,26.50
2022-09-06T18:19:02.921Z,26.40
2022-09-06T18:21:31.452Z,26.40
2022-09-06T18:23:59.005Z,26.40
2022-09-06T18:26:26.599Z,26.40
2022-09-06T18:28:53.774Z,26.30
2022-09-06T18:31:23.983Z,26.30
2022-09-06T18:33:51.720Z,26.10
2022-09-06T18:36:19.636Z,26.10
2022-09-06T18:38:46.665Z,26.10
2022-09-06T18:41:35.840Z,26.00
2022-09-06T18:44:05.236Z,26.00
2022-09-06T18:46:34.321Z,26.00
2022-09-06T18:49:01.728Z,25.90
2022-09-06T18:51:29.062Z,25.80
2022-09-06T18:53:58.446Z,25.80
2022-09-06T18:56:27.171Z,25.80
2022-09-06T18:58:57.245Z,25.80
2022-09-06T19:01:25.035Z,25.70
2022-09-06T19:03:52.077Z,25.70
2022-09-06T19:06:21.298Z,25.60
2022-09-06T19:08:52.081Z,25.60
2022-09-06T19:11:21.333Z,25.70
2022-09-06T19:14:03.712Z,25.60
2022-09-06T19:16:31.999Z,25.50
2022-09-06T19:19:10.049Z,25.50
2022-09-06T19:21:41.720Z,25.50
2022-09-06T19:24:10.871Z,25.50
2022-09-06T19:26:41.572Z,25.40
2022-09-06T19:29:13.343Z,25.30
2022-09-06T19:31:40.630Z,25.30
2022-09-06T19:34:08.296Z,25.40
2022-09-06T19:36:35.693Z,25.40
2022-09-06T19:39:06.031Z,25.30
2022-09-06T19:41:39.192Z,25.20
2022-09-06T19:44:08.860Z,25.20
2022-09-06T19:46:37.392Z,25.20
2022-09-06T19:49:08.274Z,25.30
2022-09-06T19:51:36.861Z,25.30
2022-09-06T19:54:04.288Z,25.30
2022-09-06T19:56:33.987Z,25.20
2022-09-06T19:59:06.320Z,25.10
2022-09-06T20:01:35.728Z,25.20
2022-09-06T20:04:05.092Z,25.20
2022-09-06T20:06:32.167Z,25.20
2022-09-06T20:09:01.317Z,25.20
2022-09-06T20:11:30.666Z,25.10
2022-09-06T20:13:59.020Z,25.00
2022-09-06T20:16:26.926Z,24.90
2022-09-06T20:18:59.113Z,24.90
2022-09-06T20:21:27.389Z,25.00
2022-09-06T20:23:56.229Z,25.00
2022-09-06T20:26:24.778Z,25.10
2022-09-06T20:28:59.986Z,25.10
2022-09-06T20:31:29.043Z,25.00
2022-09-06T20:33:58.259Z,24.90
2022-09-06T20:36:29.932Z,24.90
2022-09-06T20:38:57.098Z,24.90
2022-09-06T20:41:25.789Z,24.90
2022-09-06T20:43:57.890Z,24.90
2022-09-06T20:46:27.674Z,24.80
2022-09-06T20:48:57.910Z,24.70
2022-09-06T20:51:25.336Z,24.50
2022-09-06T20:53:57.220Z,24.40
2022-09-06T20:56:26.692Z,24.10
2022-09-06T20:58:56.069Z,23.80
2022-09-06T21:01:27.337Z,23.50
2022-09-06T21:03:56.627Z,23.20
2022-09-06T21:06:25.244Z,22.50
2022-09-06T21:08:52.906Z,21.60
2022-09-06T21:11:20.339Z,20.60
2022-09-06T21:13:51.992Z,19.90
2022-09-06T21:16:24.215Z,19.30
2022-09-06T21:18:53.012Z,18.90
2022-09-06T21:21:22.435Z,18.60
2022-09-06T21:23:49.721Z,18.50
2022-09-06T21:26:17.378Z,18.40
2022-09-06T21:28:46.079Z,18.20
2022-09-06T21:31:19.292Z,18.10
2022-09-06T21:33:48.910Z,18.10
2022-09-06T21:36:19.413Z,18.00
2022-09-06T21:38:48.280Z,18.10
2022-09-06T21:41:17.089Z,18.10
2022-09-06T21:43:44.512Z,18.10
2022-09-06T21:46:21.973Z,18.20
2022-09-06T21:48:50.462Z,18.30
2022-09-06T21:51:23.043Z,18.30
2022-09-06T21:53:51.402Z,18.40
2022-09-06T21:56:24.083Z,18.40
2022-09-06T21:58:55.807Z,18.30
2022-09-06T22:01:24.386Z,18.30
2022-09-06T22:03:51.721Z,18.30
2022-09-06T22:06:21.433Z,18.40
2022-09-06T22:08:48.804Z,18.40
2022-09-06T22:11:21.623Z,18.50
2022-09-06T22:13:49.922Z,18.60
2022-09-06T22:16:19.458Z,18.60
2022-09-06T22:18:48.795Z,18.60
2022-09-06T22:21:20.190Z,18.60
2022-09-06T22:23:56.956Z,18.60
2022-09-06T22:26:26.122Z,18.60
2022-09-06T22:28:55.010Z,18.60
2022-09-06T22:31:23.363Z,18.80
2022-09-06T22:33:50.921Z,18.70
2022-09-06T22:36:17.796Z,18.80
2022-09-06T22:38:46.056Z,18.80
2022-09-06T22:41:13.160Z,18.90
2022-09-06T22:43:40.141Z,18.80
2022-09-06T22:46:09.497Z,18.80
2022-09-06T22:48:36.634Z,18.70
2022-09-06T22:51:04.653Z,18.70
2022-09-06T22:53:32.339Z,18.70
2022-09-06T22:55:59.524Z,18.60
2022-09-06T22:58:29.704Z,18.60
2022-09-06T23:01:04.710Z,18.60
2022-09-06T23:03:31.876Z,18.60
2022-09-06T23:06:03.270Z,18.70
2022-09-06T23:08:31.210Z,18.70
2022-09-06T23:10:59.047Z,18.70
2022-09-06T23:13:25.919Z,18.80
2022-09-06T23:15:52.930Z,18.90
2022-09-06T23:18:20.020Z,18.90
2022-09-06T23:20:46.893Z,18.90
2022-09-06T23:23:14.021Z,18.80
2022-09-06T23:25:41.336Z,18.80
2022-09-06T23:28:08.862Z,18.70
2022-09-06T23:30:39.008Z,18.80
2022-09-06T23:33:05.983Z,18.80
2022-09-06T23:35:33.105Z,18.70
2022-09-06T23:38:00.305Z,18.70
2022-09-06T23:40:27.333Z,18.70
2022-09-06T23:42:54.164Z,18.60
2022-09-06T23:45:21.097Z,18.70
2022-09-06T23:47:47.980Z,18.70
2022-09-06T23:50:15.265Z,18.80
2022-09-06T23:52:42.144Z,18.70
2022-09-06T23:55:09.460Z,18.70
2022-09-06T23:57:36.964Z,18.70
